createdAt,value
2019-04-20T00:00:41.123Z,9.60
2019-04-20T00:03:07.649Z,9.60
2019-04-20T00:05:37.176Z,9.60
2019-04-20T00:08:09.167Z,9.60
2019-04-20T00:10:46.618Z,9.50
2019-04-20T00:13:19.464Z,9.50
2019-04-20T00:15:36.831Z,9.50
2019-04-20T00:18:07.174Z,9.40
2019-04-20T00:20:39.058Z,9.40
2019-04-20T00:23:13.506Z,9.40
2019-04-20T00:26:00.455Z,9.30
2019-04-20T00:28:39.796Z,9.20
2019-04-20T00:31:07.218Z,9.20
2019-04-20T00:33:32.379Z,9.10
2019-04-20T00:35:50.510Z,9.10
2019-04-20T00:38:21.032Z,9.10
2019-04-20T00:40:56.214Z,9.00
2019-04-20T00:43:25.018Z,8.90
2019-04-20T00:45:58.476Z,8.80
2019-04-20T00:48:31.814Z,8.80
2019-04-20T00:51:06.832Z,8.80
2019-04-20T00:53:26.229Z,8.70
2019-04-20T00:55:50.795Z,8.60
2019-04-20T00:58:25.941Z,8.60
2019-04-20T01:01:17.255Z,8.70
2019-04-20T01:03:35.122Z,8.70
2019-04-20T01:08:38.083Z,8.80
2019-04-20T01:11:08.106Z,8.70
2019-04-20T01:13:42.133Z,8.70
2019-04-20T01:16:19.666Z,8.60
2019-04-20T01:18:37.128Z,8.60
2019-04-20T01:21:13.051Z,8.70
2019-04-20T01:23:44.071Z,8.70
2019-04-20T01:26:11.544Z,8.60
2019-04-20T01:28:51.213Z,8.60
2019-04-20T01:31:18.592Z,8.40
2019-04-20T01:33:51.893Z,8.40
2019-04-20T01:36:29.276Z,8.30
2019-04-20T01:38:51.380Z,8.20
2019-04-20T01:41:07.729Z,8.10
2019-04-20T01:43:37.401Z,8.10
2019-04-20T01:46:13.138Z,8.10
2019-04-20T01:48:38.676Z,8.10
2019-04-20T01:51:11.786Z,8.00
2019-04-20T01:54:02.558Z,7.90
2019-04-20T01:56:32.951Z,8.00
2019-04-20T01:59:06.269Z,8.00
2019-04-20T02:01:39.644Z,8.00
2019-04-20T02:04:24.763Z,8.00
2019-04-20T02:06:53.221Z,7.90
2019-04-20T02:09:22.226Z,7.90
2019-04-20T02:11:50.823Z,7.80
2019-04-20T02:14:25.562Z,7.70
2019-04-20T02:16:56.575Z,7.70
2019-04-20T02:19:32.154Z,7.60
2019-04-20T02:22:03.576Z,7.60
2019-04-20T02:24:19.607Z,7.60
2019-04-20T02:26:50.092Z,7.60
2019-04-20T02:29:40.623Z,7.60
2019-04-20T02:32:23.585Z,7.70
2019-04-20T02:37:53.044Z,7.60
2019-04-20T02:40:07.105Z,7.40
2019-04-20T02:42:44.780Z,7.40
2019-04-20T02:45:10.466Z,7.20
2019-04-20T02:52:38.615Z,7.10
2019-04-20T02:57:41.867Z,7.10
2019-04-20T03:00:05.398Z,7.00
2019-04-20T03:02:18.125Z,7.20
2019-04-20T03:04:42.444Z,7.00
2019-04-20T03:07:15.384Z,6.90
2019-04-20T03:09:52.638Z,6.90
2019-04-20T03:12:31.607Z,6.90
2019-04-20T03:14:50.262Z,6.80
2019-04-20T03:17:28.259Z,6.80
2019-04-20T03:19:51.304Z,6.80
2019-04-20T03:22:29.159Z,6.80
2019-04-20T03:25:02.017Z,6.80
2019-04-20T03:27:25.128Z,6.70
2019-04-20T03:30:07.659Z,6.80
2019-04-20T03:32:57.304Z,6.80
2019-04-20T03:37:38.021Z,6.70
2019-04-20T03:39:57.989Z,6.60
2019-04-20T03:42:14.177Z,6.50
2019-04-20T03:44:48.949Z,6.50
2019-04-20T03:47:25.450Z,6.50
2019-04-20T03:50:07.342Z,6.40
2019-04-20T03:52:36.732Z,6.40
2019-04-20T03:55:26.193Z,6.40
2019-04-20T03:58:03.507Z,6.30
2019-04-20T04:00:41.428Z,6.20
2019-04-20T04:03:31.749Z,6.30
2019-04-20T04:05:55.559Z,6.30
2019-04-20T04:08:23.726Z,6.30
2019-04-20T04:11:06.494Z,6.20
2019-04-20T04:13:16.854Z,6.20
2019-04-20T04:15:51.982Z,6.10
2019-04-20T04:18:25.984Z,6.10
2019-04-20T04:20:54.138Z,6.20
2019-04-20T04:23:38.168Z,6.20
2019-04-20T04:26:13.005Z,6.20
2019-04-20T04:28:36.624Z,6.20
2019-04-20T04:31:21.419Z,6.20
2019-04-20T04:33:54.902Z,6.10
2019-04-20T04:36:04.689Z,6.10
2019-04-20T04:38:41.872Z,6.10
2019-04-20T04:41:13.957Z,6.10
2019-04-20T04:43:40.173Z,6.20
2019-04-20T04:45:51.324Z,6.20
2019-04-20T04:48:27.466Z,6.20
2019-04-20T04:50:57.433Z,6.20
2019-04-20T04:53:29.856Z,6.30
2019-04-20T04:55:56.537Z,6.30
2019-04-20T04:58:21.617Z,6.40
2019-04-20T05:00:51.369Z,6.50
2019-04-20T05:03:41.421Z,6.60
2019-04-20T05:06:13.371Z,6.60
2019-04-20T05:08:31.594Z,6.70
2019-04-20T05:10:54.138Z,6.80
2019-04-20T05:13:26.838Z,6.90
2019-04-20T05:16:09.762Z,7.00
2019-04-20T05:18:44.874Z,7.20
2019-04-20T05:21:14.920Z,7.20
2019-04-20T05:23:37.881Z,7.30
2019-04-20T05:26:25.609Z,7.50
2019-04-20T05:28:46.061Z,7.60
2019-04-20T05:31:09.295Z,7.90
2019-04-20T05:34:04.153Z,8.00
2019-04-20T05:36:23.447Z,8.20
2019-04-20T05:39:02.263Z,8.40
2019-04-20T05:41:24.056Z,8.50
2019-04-20T05:44:05.040Z,8.60
2019-04-20T05:46:36.283Z,8.80
2019-04-20T05:49:15.057Z,9.00
2019-04-20T05:54:09.752Z,9.60
2019-04-20T05:56:43.873Z,9.80
2019-04-20T05:59:09.836Z,10.10
2019-04-20T06:01:45.478Z,10.20
2019-04-20T06:04:05.475Z,10.20
2019-04-20T06:06:37.988Z,10.30
2019-04-20T06:09:12.057Z,10.50
2019-04-20T06:11:44.868Z,10.80
2019-04-20T06:14:02.377Z,10.70
2019-04-20T06:16:56.852Z,10.80
2019-04-20T06:19:31.557Z,10.80
2019-04-20T06:21:57.942Z,11.00
2019-04-20T06:24:37.794Z,11.10
2019-04-20T06:26:59.469Z,11.20
2019-04-20T06:29:23.569Z,11.40
2019-04-20T06:31:58.031Z,11.60
2019-04-20T06:34:33.091Z,11.60
2019-04-20T06:36:58.355Z,11.90
2019-04-20T06:42:10.791Z,12.10
2019-04-20T06:52:25.828Z,12.40
2019-04-20T06:55:03.407Z,12.60
2019-04-20T06:57:37.238Z,12.70
2019-04-20T07:00:10.194Z,12.90
2019-04-20T07:02:41.460Z,12.90
2019-04-20T07:05:05.416Z,12.90
2019-04-20T07:07:40.394Z,12.90
2019-04-20T07:10:16.205Z,13.00
2019-04-20T07:12:32.969Z,13.10
2019-04-20T07:14:55.470Z,13.30
2019-04-20T07:17:47.273Z,13.40
2019-04-20T07:20:04.230Z,13.50
2019-04-20T07:22:52.002Z,13.60
2019-04-20T07:25:16.102Z,13.60
2019-04-20T07:27:49.450Z,13.60
2019-04-20T07:30:12.392Z,13.60
2019-04-20T07:32:56.532Z,13.80
2019-04-20T07:35:17.176Z,14.00
2019-04-20T07:38:18.213Z,14.20
2019-04-20T07:40:28.801Z,14.10
2019-04-20T07:42:52.334Z,14.20
2019-04-20T07:45:24.127Z,14.40
2019-04-20T07:48:09.028Z,14.50
2019-04-20T07:50:13.655Z,14.70
2019-04-20T07:52:38.643Z,14.70
2019-04-20T07:55:33.564Z,14.60
2019-04-20T07:57:46.082Z,14.70
2019-04-20T08:00:20.077Z,14.90
2019-04-20T08:03:13.097Z,14.90
2019-04-20T08:05:36.704Z,14.90
2019-04-20T08:08:12.720Z,14.90
2019-04-20T08:10:47.383Z,15.00
2019-04-20T08:15:49.485Z,15.40
2019-04-20T08:18:21.039Z,15.60
2019-04-20T08:20:47.497Z,15.80
2019-04-20T08:23:17.523Z,15.60
2019-04-20T08:25:43.282Z,16.00
2019-04-20T08:28:01.379Z,16.10
2019-04-20T08:31:00.615Z,16.00
2019-04-20T08:33:42.673Z,16.10
2019-04-20T08:36:11.128Z,16.20
2019-04-20T08:41:08.500Z,16.30
2019-04-20T08:46:17.753Z,16.30
2019-04-20T08:48:46.948Z,16.40
2019-04-20T08:51:16.321Z,16.50
2019-04-20T08:53:46.989Z,16.60
2019-04-20T08:56:09.979Z,16.80
2019-04-20T08:58:25.450Z,16.70
2019-04-20T09:00:58.675Z,16.80
2019-04-20T09:03:30.161Z,17.00
2019-04-20T09:06:03.220Z,17.00
2019-04-20T09:08:30.797Z,17.00
2019-04-20T09:11:10.000Z,17.20
2019-04-20T09:13:34.249Z,17.50
2019-04-20T09:15:55.869Z,17.60
2019-04-20T09:18:33.346Z,17.50
2019-04-20T09:21:03.348Z,17.40
2019-04-20T09:23:49.719Z,17.40
2019-04-20T09:26:20.499Z,17.30
2019-04-20T09:28:47.967Z,17.50
2019-04-20T09:31:25.784Z,17.50
2019-04-20T09:34:13.095Z,17.60
2019-04-20T09:36:45.825Z,17.90
2019-04-20T09:39:17.695Z,18.10
2019-04-20T09:42:01.091Z,17.90
2019-04-20T09:44:13.291Z,18.00
2019-04-20T09:46:46.055Z,18.20
2019-04-20T09:49:20.051Z,18.20
2019-04-20T09:51:57.513Z,18.40
2019-04-20T09:54:31.073Z,18.40
2019-04-20T09:57:03.221Z,18.80
2019-04-20T09:59:33.489Z,18.70
2019-04-20T10:01:47.606Z,18.70
2019-04-20T10:04:13.596Z,18.80
2019-04-20T10:06:43.484Z,18.90
2019-04-20T10:09:12.089Z,19.00
2019-04-20T10:11:43.626Z,19.10
2019-04-20T10:14:10.648Z,19.10
2019-04-20T10:16:39.992Z,19.30
2019-04-20T10:19:11.664Z,19.20
2019-04-20T10:21:38.698Z,19.40
2019-04-20T10:24:08.451Z,19.70
2019-04-20T10:26:37.086Z,19.60
2019-04-20T10:29:05.744Z,19.50
2019-04-20T10:31:37.696Z,19.40
2019-04-20T10:34:04.655Z,19.60
2019-04-20T10:36:41.752Z,19.70
2019-04-20T10:39:10.956Z,19.90
2019-04-20T10:41:46.971Z,20.10
2019-04-20T10:44:10.996Z,20.00
2019-04-20T10:46:40.720Z,20.20
2019-04-20T10:49:09.679Z,20.10
2019-04-20T10:51:39.987Z,20.30
2019-04-20T10:54:08.758Z,20.50
2019-04-20T10:56:37.355Z,20.70
2019-04-20T10:59:05.855Z,20.70
2019-04-20T11:01:34.280Z,20.60
2019-04-20T11:04:03.052Z,20.80
2019-04-20T11:06:32.374Z,20.80
2019-04-20T11:09:00.970Z,20.90
2019-04-20T11:11:31.704Z,21.00
2019-04-20T11:14:06.565Z,20.80
2019-04-20T11:16:30.628Z,20.90
2019-04-20T11:18:59.177Z,21.30
2019-04-20T11:21:28.229Z,21.40
2019-04-20T11:23:56.757Z,21.20
2019-04-20T11:26:26.381Z,21.20
2019-04-20T11:28:55.893Z,21.40
2019-04-20T11:31:28.763Z,21.40
2019-04-20T11:33:54.546Z,21.40
2019-04-20T11:36:23.257Z,21.40
2019-04-20T11:38:57.104Z,21.50
2019-04-20T11:41:29.023Z,21.50
2019-04-20T11:43:55.789Z,21.40
2019-04-20T11:46:24.967Z,21.50
2019-04-20T11:48:53.505Z,21.50
2019-04-20T11:51:23.267Z,21.60
2019-04-20T11:53:52.253Z,21.60
2019-04-20T11:56:26.215Z,21.80
2019-04-20T11:58:51.154Z,21.80
2019-04-20T12:01:47.939Z,22.10
2019-04-20T12:04:24.491Z,22.20
2019-04-20T12:06:43.340Z,22.10
2019-04-20T12:09:12.876Z,22.10
2019-04-20T12:11:56.005Z,22.20
2019-04-20T12:14:12.577Z,22.20
2019-04-20T12:16:41.656Z,22.20
2019-04-20T12:19:10.578Z,22.10
2019-04-20T12:21:39.332Z,22.10
2019-04-20T12:24:07.840Z,21.90
2019-04-20T12:26:36.541Z,22.30
2019-04-20T12:29:05.740Z,22.70
2019-04-20T12:31:35.541Z,22.80
2019-04-20T12:34:04.573Z,22.50
2019-04-20T12:36:33.309Z,22.40
2019-04-20T12:39:03.300Z,22.60
2019-04-20T12:41:39.783Z,22.40
2019-04-20T12:44:02.100Z,22.40
2019-04-20T12:46:31.840Z,22.40
2019-04-20T12:49:01.768Z,22.40
2019-04-20T12:51:37.699Z,22.50
2019-04-20T12:54:00.704Z,22.50
2019-04-20T12:56:29.120Z,22.70
2019-04-20T12:58:57.801Z,22.90
2019-04-20T13:01:26.396Z,23.10
2019-04-20T13:03:55.330Z,22.90
2019-04-20T13:06:23.942Z,23.00
2019-04-20T13:08:57.032Z,23.30
2019-04-20T13:11:24.792Z,23.30
2019-04-20T13:14:22.181Z,23.30
2019-04-20T13:16:52.189Z,23.30
2019-04-20T13:19:21.421Z,23.50
2019-04-20T13:21:50.081Z,23.70
2019-04-20T13:24:18.842Z,23.80
2019-04-20T13:26:47.386Z,23.90
2019-04-20T13:29:17.050Z,23.60
2019-04-20T13:31:48.178Z,23.60
2019-04-20T13:34:17.220Z,23.50
2019-04-20T13:36:46.270Z,23.80
2019-04-20T13:39:14.824Z,24.00
2019-04-20T13:41:43.231Z,24.20
2019-04-20T13:44:11.652Z,24.40
2019-04-20T13:46:40.919Z,24.50
2019-04-20T13:49:09.506Z,24.70
2019-04-20T13:51:39.120Z,24.60
2019-04-20T13:54:16.200Z,24.80
2019-04-20T13:56:39.609Z,24.50
2019-04-20T13:59:28.176Z,24.50
2019-04-20T14:02:00.972Z,24.40
2019-04-20T14:04:32.631Z,25.60
2019-04-20T14:07:01.738Z,26.20
2019-04-20T14:09:30.367Z,26.30
2019-04-20T14:12:11.860Z,26.90
2019-04-20T14:14:29.052Z,27.80
2019-04-20T14:16:58.940Z,27.30
2019-04-20T14:19:27.670Z,27.30
2019-04-20T14:21:56.459Z,27.80
2019-04-20T14:24:25.057Z,27.90
2019-04-20T14:26:54.746Z,28.80
2019-04-20T14:29:23.402Z,28.90
2019-04-20T14:31:52.091Z,28.80
2019-04-20T14:34:20.738Z,28.80
2019-04-20T14:36:49.182Z,29.80
2019-04-20T14:39:18.324Z,29.70
2019-04-20T14:41:46.846Z,29.20
2019-04-20T14:44:16.159Z,29.60
2019-04-20T14:46:45.535Z,29.30
2019-04-20T14:49:14.724Z,29.20
2019-04-20T14:51:43.689Z,29.60
2019-04-20T14:54:13.746Z,29.10
2019-04-20T14:56:43.490Z,28.80
2019-04-20T14:59:29.546Z,29.20
2019-04-20T15:02:00.780Z,28.90
2019-04-20T15:04:30.714Z,28.50
2019-04-20T15:07:00.298Z,28.90
2019-04-20T15:09:28.863Z,29.10
2019-04-20T15:11:59.051Z,28.70
2019-04-20T15:14:28.910Z,28.70
2019-04-20T15:16:58.429Z,28.10
2019-04-20T15:19:41.371Z,28.50
2019-04-20T15:22:29.462Z,28.80
2019-04-20T15:24:58.083Z,28.80
2019-04-20T15:27:26.490Z,28.30
2019-04-20T15:29:56.163Z,28.50
2019-04-20T15:32:25.010Z,29.10
2019-04-20T15:34:53.546Z,28.60
2019-04-20T15:37:23.248Z,29.10
2019-04-20T15:39:52.833Z,28.10
2019-04-20T15:42:21.327Z,28.00
2019-04-20T15:44:49.758Z,27.50
2019-04-20T15:47:18.174Z,28.20
2019-04-20T15:49:46.585Z,28.50
2019-04-20T15:52:19.874Z,28.40
2019-04-20T15:54:45.604Z,28.10
2019-04-20T15:57:18.449Z,27.40
2019-04-20T15:59:44.478Z,27.20
2019-04-20T16:02:17.726Z,27.50
2019-04-20T16:04:52.174Z,27.40
2019-04-20T16:07:21.407Z,27.60
2019-04-20T16:09:51.460Z,27.40
2019-04-20T16:12:20.860Z,27.30
2019-04-20T16:14:49.509Z,27.00
2019-04-20T16:17:19.358Z,26.70
2019-04-20T16:19:55.374Z,26.80
2019-04-20T16:22:19.882Z,26.80
2019-04-20T16:24:49.994Z,26.70
2019-04-20T16:27:29.706Z,27.00
2019-04-20T16:29:59.808Z,26.70
2019-04-20T16:32:28.561Z,26.80
2019-04-20T16:34:58.198Z,27.00
2019-04-20T16:37:26.822Z,27.10
2019-04-20T16:39:56.541Z,26.60
2019-04-20T16:42:26.627Z,26.30
2019-04-20T16:44:55.172Z,25.60
2019-04-20T16:47:24.058Z,25.70
2019-04-20T16:49:52.885Z,25.70
2019-04-20T16:52:21.417Z,25.70
2019-04-20T16:54:50.106Z,25.70
2019-04-20T16:57:19.535Z,25.70
2019-04-20T16:59:52.255Z,25.50
2019-04-20T17:02:20.857Z,25.50
2019-04-20T17:04:51.504Z,25.40
2019-04-20T17:07:20.691Z,25.20
2019-04-20T17:09:52.376Z,24.90
2019-04-20T17:12:22.197Z,24.60
2019-04-20T17:14:51.682Z,24.90
2019-04-20T17:17:20.217Z,24.80
2019-04-20T17:19:49.317Z,24.40
2019-04-20T17:22:19.169Z,24.10
2019-04-20T17:24:47.780Z,23.90
2019-04-20T17:27:33.069Z,23.50
2019-04-20T17:30:13.296Z,23.20
2019-04-20T17:32:43.418Z,22.60
2019-04-20T17:35:21.928Z,22.10
2019-04-20T17:37:45.108Z,21.70
2019-04-20T17:40:34.193Z,21.10
2019-04-20T17:42:53.070Z,20.90
2019-04-20T17:45:25.811Z,20.70
2019-04-20T17:48:03.186Z,20.40
2019-04-20T17:50:33.080Z,20.20
2019-04-20T17:53:03.604Z,20.10
2019-04-20T17:55:27.055Z,19.90
2019-04-20T17:57:49.103Z,19.70
2019-04-20T18:00:22.619Z,19.60
2019-04-20T18:03:10.009Z,19.40
2019-04-20T18:05:58.496Z,19.20
2019-04-20T18:08:27.281Z,19.10
2019-04-20T18:10:47.499Z,19.00
2019-04-20T18:13:12.099Z,18.80
2019-04-20T18:15:48.780Z,18.70
2019-04-20T18:18:40.871Z,18.60
2019-04-20T18:21:12.812Z,18.50
2019-04-20T18:23:44.761Z,18.30
2019-04-20T18:26:31.724Z,18.10
2019-04-20T18:29:04.399Z,18.00
2019-04-20T18:31:17.589Z,17.80
2019-04-20T18:33:46.589Z,17.70
2019-04-20T18:36:23.389Z,17.60
2019-04-20T18:38:55.258Z,17.50
2019-04-20T18:41:28.064Z,17.40
2019-04-20T18:43:51.935Z,17.20
2019-04-20T18:46:31.933Z,17.00
2019-04-20T18:49:08.520Z,16.90
2019-04-20T18:51:17.515Z,16.80
2019-04-20T18:53:48.243Z,16.70
2019-04-20T18:56:23.790Z,16.60
2019-04-20T18:58:47.027Z,16.50
2019-04-20T19:01:16.963Z,16.30
2019-04-20T19:03:47.400Z,16.20
2019-04-20T19:06:16.098Z,16.20
2019-04-20T19:08:48.546Z,16.10
2019-04-20T19:11:19.459Z,16.00
2019-04-20T19:13:51.138Z,15.90
2019-04-20T19:16:31.274Z,15.80
2019-04-20T19:19:09.906Z,15.60
2019-04-20T19:21:29.069Z,15.50
2019-04-20T19:24:06.598Z,15.30
2019-04-20T19:26:28.572Z,15.20
2019-04-20T19:29:09.304Z,14.90
2019-04-20T19:31:42.508Z,14.70
2019-04-20T19:34:15.342Z,14.50
2019-04-20T19:36:36.310Z,14.40
2019-04-20T19:39:15.208Z,14.30
2019-04-20T19:41:40.676Z,14.20
2019-04-20T19:44:10.031Z,14.10
2019-04-20T19:46:48.308Z,14.00
2019-04-20T19:49:19.394Z,13.90
2019-04-20T19:52:02.872Z,13.80
2019-04-20T19:54:23.844Z,13.70
2019-04-20T19:56:48.540Z,13.60
2019-04-20T19:59:18.588Z,13.50
2019-04-20T20:01:35.714Z,13.50
2019-04-20T20:04:07.638Z,13.40
2019-04-20T20:06:43.708Z,13.20
2019-04-20T20:09:12.121Z,13.20
2019-04-20T20:11:41.118Z,13.10
2019-04-20T20:14:10.799Z,13.10
2019-04-20T20:16:57.661Z,13.00
2019-04-20T20:19:14.212Z,12.90
2019-04-20T20:21:54.455Z,12.90
2019-04-20T20:24:11.273Z,12.90
2019-04-20T20:26:45.843Z,12.80
2019-04-20T20:29:19.703Z,12.80
2019-04-20T20:31:56.267Z,12.70
2019-04-20T20:34:17.028Z,12.60
2019-04-20T20:36:47.278Z,12.50
2019-04-20T20:39:16.680Z,12.50
2019-04-20T20:41:53.111Z,12.40
2019-04-20T20:44:26.490Z,12.40
2019-04-20T20:46:58.695Z,12.40
2019-04-20T20:49:35.866Z,12.40
2019-04-20T20:52:05.902Z,12.40
2019-04-20T20:54:28.462Z,12.20
2019-04-20T20:56:49.966Z,12.20
2019-04-20T20:59:26.857Z,12.10
2019-04-20T21:01:51.745Z,12.00
2019-04-20T21:04:13.062Z,12.00
2019-04-20T21:06:42.558Z,12.00
2019-04-20T21:09:12.541Z,11.80
2019-04-20T21:11:42.194Z,11.70
2019-04-20T21:14:14.436Z,11.70
2019-04-20T21:16:51.151Z,11.60
2019-04-20T21:19:24.999Z,11.50
2019-04-20T21:21:49.713Z,11.40
2019-04-20T21:24:17.687Z,11.40
2019-04-20T21:26:44.304Z,11.30
2019-04-20T21:29:13.670Z,11.30
2019-04-20T21:31:43.458Z,11.30
2019-04-20T21:34:17.484Z,11.40
2019-04-20T21:36:43.172Z,11.40
2019-04-20T21:39:21.863Z,11.40
2019-04-20T21:41:49.641Z,11.40
2019-04-20T21:44:19.070Z,11.40
2019-04-20T21:46:47.359Z,11.40
2019-04-20T21:49:26.226Z,11.30
2019-04-20T21:51:50.232Z,11.30
2019-04-20T21:54:13.937Z,11.20
2019-04-20T21:56:49.873Z,11.10
2019-04-20T21:59:20.503Z,11.00
2019-04-20T22:01:55.001Z,10.90
2019-04-20T22:04:14.339Z,10.90
2019-04-20T22:06:42.939Z,10.80
2019-04-20T22:09:14.790Z,10.80
2019-04-20T22:11:44.202Z,10.70
2019-04-20T22:14:17.526Z,10.60
2019-04-20T22:16:49.166Z,10.50
2019-04-20T22:19:28.578Z,10.40
2019-04-20T22:21:53.174Z,10.40
2019-04-20T22:24:28.707Z,10.20
2019-04-20T22:26:54.869Z,10.00
2019-04-20T22:29:14.324Z,9.90
2019-04-20T22:31:45.210Z,9.90
2019-04-20T22:34:17.441Z,10.00
2019-04-20T22:36:46.740Z,9.90
2019-04-20T22:39:32.229Z,9.80
2019-04-20T22:42:03.469Z,9.70
2019-04-20T22:44:30.593Z,9.60
2019-04-20T22:46:58.509Z,9.60
2019-04-20T22:49:43.130Z,9.60
2019-04-20T22:52:06.359Z,9.60
2019-04-20T22:54:41.756Z,9.60
2019-04-20T22:57:08.286Z,9.60
2019-04-20T22:59:38.521Z,9.60
2019-04-20T23:02:00.615Z,9.60
2019-04-20T23:04:28.760Z,9.60
2019-04-20T23:06:57.724Z,9.60
2019-04-20T23:09:28.772Z,9.60
2019-04-20T23:12:03.607Z,9.50
2019-04-20T23:14:28.793Z,9.50
2019-04-20T23:16:57.532Z,9.30
2019-04-20T23:19:34.546Z,9.40
2019-04-20T23:22:01.289Z,9.30
2019-04-20T23:24:27.049Z,9.30
2019-04-20T23:26:55.528Z,9.30
2019-04-20T23:29:27.166Z,9.30
2019-04-20T23:31:59.409Z,9.20
2019-04-20T23:34:28.453Z,9.20
2019-04-20T23:36:54.871Z,9.20
2019-04-20T23:39:34.129Z,9.20
2019-04-20T23:41:58.587Z,9.30
2019-04-20T23:44:40.107Z,9.20
2019-04-20T23:47:15.546Z,9.10
2019-04-20T23:50:06.126Z,9.00
2019-04-20T23:52:38.939Z,9.00
2019-04-20T23:54:54.409Z,9.00
2019-04-20T23:57:15.662Z,8.90
2019-04-20T23:59:46.254Z,8.80
